createdAt,value
2023-05-10T00:00:46.670Z,95
2023-05-10T00:20:46.932Z,94
2023-05-10T00:40:49.105Z,93
2023-05-10T01:00:47.322Z,93
2023-05-10T01:20:49.947Z,94
2023-05-10T01:40:49.283Z,93
2023-05-10T02:00:47.890Z,93
2023-05-10T02:20:47.033Z,94
2023-05-10T02:40:48.366Z,92
2023-05-10T03:00:48.066Z,92
2023-05-10T03:20:47.723Z,92
2023-05-10T03:40:47.369Z,94
2023-05-10T04:00:50.089Z,94
2023-05-10T04:21:07.455Z,94
2023-05-10T04:40:48.054Z,93
2023-05-10T05:01:13.181Z,92
2023-05-10T05:21:10.604Z,93
2023-05-10T05:41:12.942Z,94
2023-05-10T06:01:13.540Z,94
2023-05-10T06:21:15.354Z,94
2023-05-10T06:41:16.511Z,93
2023-05-10T07:01:09.401Z,92
2023-05-10T07:21:10.962Z,92
2023-05-10T07:41:06.983Z,92
2023-05-10T08:01:10.584Z,90
2023-05-10T08:21:09.993Z,90
2023-05-10T08:41:15.446Z,90
2023-05-10T09:01:08.339Z,88
2023-05-10T09:21:07.333Z,88
2023-05-10T09:41:07.463Z,85
2023-05-10T10:01:05.604Z,84
2023-05-10T10:21:07.138Z,90
2023-05-10T10:41:12.950Z,88
2023-05-10T11:01:08.354Z,83
2023-05-10T11:21:08.294Z,81
2023-05-10T11:41:07.300Z,79
2023-05-10T12:01:16.819Z,76
2023-05-10T12:21:16.000Z,73
2023-05-10T12:41:06.954Z,74
2023-05-10T13:01:13.923Z,73
2023-05-10T13:21:09.384Z,75
2023-05-10T13:41:13.159Z,84
2023-05-10T14:01:13.293Z,85
2023-05-10T14:21:10.900Z,78
2023-05-10T14:41:12.109Z,79
2023-05-10T15:01:09.251Z,74
2023-05-10T15:21:08.740Z,77
2023-05-10T15:41:07.734Z,82
2023-05-10T16:01:08.954Z,76
2023-05-10T16:21:09.150Z,79
2023-05-10T16:41:12.181Z,67
2023-05-10T17:01:09.936Z,68
2023-05-10T17:21:08.633Z,68
2023-05-10T17:41:07.835Z,70
2023-05-10T18:01:08.737Z,71
2023-05-10T18:21:07.506Z,73
2023-05-10T18:41:14.411Z,74
2023-05-10T19:00:46.933Z,75
2023-05-10T19:20:54.686Z,77
2023-05-10T19:40:49.194Z,78
2023-05-10T20:00:48.024Z,79
2023-05-10T20:20:50.610Z,80
2023-05-10T20:40:51.214Z,82
2023-05-10T21:00:48.614Z,82
2023-05-10T21:20:47.407Z,82
2023-05-10T21:40:46.645Z,83
2023-05-10T22:00:58.363Z,82
2023-05-10T22:20:47.981Z,84
2023-05-10T22:40:46.086Z,83
2023-05-10T23:00:47.363Z,84
2023-05-10T23:20:48.109Z,85
2023-05-10T23:40:47.082Z,86
